sensor_id;sensor_type;location;lat;lon;timestamp;temperature;humidity
54409;DHT22;40315;48.620;9.828;2022-08-19T00:01:40;19.10;99.90
54409;DHT22;40315;48.620;9.828;2022-08-19T00:04:13;19.10;99.90
54409;DHT22;40315;48.620;9.828;2022-08-19T00:06:45;19.10;99.90
54409;DHT22;40315;48.620;9.828;2022-08-19T00:09:15;19.20;99.90
54409;DHT22;40315;48.620;9.828;2022-08-19T00:11:45;19.20;99.90
54409;DHT22;40315;48.620;9.828;2022-08-19T00:14:15;19.10;99.90
54409;DHT22;40315;48.620;9.828;2022-08-19T00:16:46;19.00;99.90
54409;DHT22;40315;48.620;9.828;2022-08-19T00:19:14;19.10;99.90
54409;DHT22;40315;48.620;9.828;2022-08-19T00:21:43;19.00;99.90
54409;DHT22;40315;48.620;9.828;2022-08-19T00:24:14;19.00;99.90
54409;DHT22;40315;48.620;9.828;2022-08-19T00:26:44;18.80;99.90
54409;DHT22;40315;48.620;9.828;2022-08-19T00:29:16;18.90;99.90
54409;DHT22;40315;48.620;9.828;2022-08-19T00:31:45;18.80;99.90
54409;DHT22;40315;48.620;9.828;2022-08-19T00:34:15;18.80;99.90
54409;DHT22;40315;48.620;9.828;2022-08-19T00:36:48;18.80;99.90
54409;DHT22;40315;48.620;9.828;2022-08-19T00:39:17;18.90;99.90
54409;DHT22;40315;48.620;9.828;2022-08-19T00:41:45;19.00;99.90
54409;DHT22;40315;48.620;9.828;2022-08-19T00:44:16;18.90;99.90
54409;DHT22;40315;48.620;9.828;2022-08-19T00:46:46;18.90;99.90
54409;DHT22;40315;48.620;9.828;2022-08-19T00:49:15;19.00;99.90
54409;DHT22;40315;48.620;9.828;2022-08-19T00:51:47;19.00;99.90
54409;DHT22;40315;48.620;9.828;2022-08-19T00:54:16;19.10;99.90
54409;DHT22;40315;48.620;9.828;2022-08-19T00:56:44;19.00;99.90
54409;DHT22;40315;48.620;9.828;2022-08-19T00:59:12;18.60;99.90
54409;DHT22;40315;48.620;9.828;2022-08-19T01:01:41;18.50;99.90
54409;DHT22;40315;48.620;9.828;2022-08-19T01:04:12;18.40;99.90
54409;DHT22;40315;48.620;9.828;2022-08-19T01:06:40;18.50;99.90
54409;DHT22;40315;48.620;9.828;2022-08-19T01:09:09;18.50;99.90
54409;DHT22;40315;48.620;9.828;2022-08-19T01:11:38;18.60;99.90
54409;DHT22;40315;48.620;9.828;2022-08-19T01:14:07;18.70;99.90
54409;DHT22;40315;48.620;9.828;2022-08-19T01:16:35;18.80;99.90
54409;DHT22;40315;48.620;9.828;2022-08-19T01:19:03;18.90;99.90
54409;DHT22;40315;48.620;9.828;2022-08-19T01:21:34;18.90;99.90
54409;DHT22;40315;48.620;9.828;2022-08-19T01:24:05;18.90;99.90
54409;DHT22;40315;48.620;9.828;2022-08-19T01:26:38;19.00;99.90
54409;DHT22;40315;48.620;9.828;2022-08-19T01:29:08;18.90;99.90
54409;DHT22;40315;48.620;9.828;2022-08-19T01:31:35;18.90;99.90
54409;DHT22;40315;48.620;9.828;2022-08-19T01:34:03;19.00;99.90
54409;DHT22;40315;48.620;9.828;2022-08-19T01:36:33;19.00;99.90
54409;DHT22;40315;48.620;9.828;2022-08-19T01:39:04;19.00;99.90
54409;DHT22;40315;48.620;9.828;2022-08-19T01:44:55;19.10;99.90
54409;DHT22;40315;48.620;9.828;2022-08-19T01:47:22;19.00;99.90
54409;DHT22;40315;48.620;9.828;2022-08-19T01:49:49;19.00;99.90
54409;DHT22;40315;48.620;9.828;2022-08-19T01:52:16;19.00;99.90
54409;DHT22;40315;48.620;9.828;2022-08-19T01:54:43;19.00;99.90
54409;DHT22;40315;48.620;9.828;2022-08-19T01:57:12;19.10;99.90
54409;DHT22;40315;48.620;9.828;2022-08-19T01:59:41;19.10;99.90
54409;DHT22;40315;48.620;9.828;2022-08-19T02:02:11;19.00;99.90
54409;DHT22;40315;48.620;9.828;2022-08-19T02:04:40;19.00;99.90
54409;DHT22;40315;48.620;9.828;2022-08-19T02:07:07;19.00;99.90
54409;DHT22;40315;48.620;9.828;2022-08-19T02:09:35;19.00;99.90
54409;DHT22;40315;48.620;9.828;2022-08-19T02:12:06;19.00;99.90
54409;DHT22;40315;48.620;9.828;2022-08-19T02:14:34;19.00;99.90
54409;DHT22;40315;48.620;9.828;2022-08-19T02:17:01;19.00;99.90
54409;DHT22;40315;48.620;9.828;2022-08-19T02:19:31;18.90;99.90
54409;DHT22;40315;48.620;9.828;2022-08-19T02:21:59;18.90;99.90
54409;DHT22;40315;48.620;9.828;2022-08-19T02:24:26;19.00;99.90
54409;DHT22;40315;48.620;9.828;2022-08-19T02:26:54;18.90;99.90
54409;DHT22;40315;48.620;9.828;2022-08-19T02:29:21;18.80;99.90
54409;DHT22;40315;48.620;9.828;2022-08-19T02:31:48;18.60;99.90
54409;DHT22;40315;48.620;9.828;2022-08-19T02:34:18;18.70;99.90
54409;DHT22;40315;48.620;9.828;2022-08-19T02:36:47;18.60;99.90
54409;DHT22;40315;48.620;9.828;2022-08-19T02:39:13;18.60;99.90
54409;DHT22;40315;48.620;9.828;2022-08-19T02:41:42;18.70;99.90
54409;DHT22;40315;48.620;9.828;2022-08-19T02:44:09;18.60;99.90
54409;DHT22;40315;48.620;9.828;2022-08-19T02:46:38;18.50;99.90
54409;DHT22;40315;48.620;9.828;2022-08-19T02:49:06;18.40;99.90
54409;DHT22;40315;48.620;9.828;2022-08-19T02:51:35;18.60;99.90
54409;DHT22;40315;48.620;9.828;2022-08-19T02:54:07;18.70;99.90
54409;DHT22;40315;48.620;9.828;2022-08-19T02:56:36;18.70;99.90
54409;DHT22;40315;48.620;9.828;2022-08-19T02:59:04;18.70;99.90
54409;DHT22;40315;48.620;9.828;2022-08-19T03:01:37;18.70;99.90
54409;DHT22;40315;48.620;9.828;2022-08-19T03:04:08;18.70;99.90
54409;DHT22;40315;48.620;9.828;2022-08-19T03:06:36;18.60;99.90
54409;DHT22;40315;48.620;9.828;2022-08-19T03:09:06;18.70;99.90
54409;DHT22;40315;48.620;9.828;2022-08-19T03:11:33;18.70;99.90
54409;DHT22;40315;48.620;9.828;2022-08-19T03:14:04;18.60;99.90
54409;DHT22;40315;48.620;9.828;2022-08-19T03:16:34;18.50;99.90
54409;DHT22;40315;48.620;9.828;2022-08-19T03:19:02;18.50;99.90
54409;DHT22;40315;48.620;9.828;2022-08-19T03:21:30;18.60;99.90
54409;DHT22;40315;48.620;9.828;2022-08-19T03:23:59;18.60;99.90
54409;DHT22;40315;48.620;9.828;2022-08-19T03:26:28;18.60;99.90
54409;DHT22;40315;48.620;9.828;2022-08-19T03:29:01;18.60;99.90
54409;DHT22;40315;48.620;9.828;2022-08-19T03:31:29;18.50;99.90
54409;DHT22;40315;48.620;9.828;2022-08-19T03:33:56;18.50;99.90
54409;DHT22;40315;48.620;9.828;2022-08-19T03:36:26;18.50;99.90
54409;DHT22;40315;48.620;9.828;2022-08-19T03:39:03;18.50;99.90
54409;DHT22;40315;48.620;9.828;2022-08-19T03:41:37;18.40;99.90
54409;DHT22;40315;48.620;9.828;2022-08-19T03:44:05;18.40;99.90
54409;DHT22;40315;48.620;9.828;2022-08-19T03:46:35;18.40;99.90
54409;DHT22;40315;48.620;9.828;2022-08-19T03:49:04;18.40;99.90
54409;DHT22;40315;48.620;9.828;2022-08-19T03:51:34;18.30;99.90
54409;DHT22;40315;48.620;9.828;2022-08-19T03:54:07;18.30;99.90
54409;DHT22;40315;48.620;9.828;2022-08-19T03:56:37;18.40;99.90
54409;DHT22;40315;48.620;9.828;2022-08-19T03:59:06;18.40;99.90
54409;DHT22;40315;48.620;9.828;2022-08-19T04:01:34;18.40;99.90
54409;DHT22;40315;48.620;9.828;2022-08-19T04:04:02;18.40;99.90
54409;DHT22;40315;48.620;9.828;2022-08-19T04:06:31;18.40;99.90
54409;DHT22;40315;48.620;9.828;2022-08-19T04:09:01;18.40;99.90
54409;DHT22;40315;48.620;9.828;2022-08-19T04:11:30;18.40;99.90
54409;DHT22;40315;48.620;9.828;2022-08-19T04:14:01;18.40;99.90
54409;DHT22;40315;48.620;9.828;2022-08-19T04:16:29;18.40;99.90
54409;DHT22;40315;48.620;9.828;2022-08-19T04:19:00;18.40;99.90
54409;DHT22;40315;48.620;9.828;2022-08-19T04:21:28;18.40;99.90
54409;DHT22;40315;48.620;9.828;2022-08-19T04:23:56;18.40;99.90
54409;DHT22;40315;48.620;9.828;2022-08-19T04:26:25;18.40;99.90
54409;DHT22;40315;48.620;9.828;2022-08-19T04:28:53;18.30;99.90
54409;DHT22;40315;48.620;9.828;2022-08-19T04:31:26;18.20;99.90
54409;DHT22;40315;48.620;9.828;2022-08-19T04:33:54;18.20;99.90
54409;DHT22;40315;48.620;9.828;2022-08-19T04:36:24;18.30;99.90
54409;DHT22;40315;48.620;9.828;2022-08-19T04:38:54;18.40;99.90
54409;DHT22;40315;48.620;9.828;2022-08-19T04:41:21;18.30;99.90
54409;DHT22;40315;48.620;9.828;2022-08-19T04:44:06;18.30;99.90
54409;DHT22;40315;48.620;9.828;2022-08-19T04:46:34;18.30;99.90
54409;DHT22;40315;48.620;9.828;2022-08-19T04:49:02;18.30;99.90
54409;DHT22;40315;48.620;9.828;2022-08-19T04:51:31;18.40;99.90
54409;DHT22;40315;48.620;9.828;2022-08-19T04:53:59;18.30;99.90
54409;DHT22;40315;48.620;9.828;2022-08-19T04:56:30;18.30;99.90
54409;DHT22;40315;48.620;9.828;2022-08-19T04:58:59;19.50;99.90
54409;DHT22;40315;48.620;9.828;2022-08-19T05:01:31;18.30;99.90
54409;DHT22;40315;48.620;9.828;2022-08-19T05:04:01;18.40;99.90
54409;DHT22;40315;48.620;9.828;2022-08-19T05:06:34;18.30;99.90
54409;DHT22;40315;48.620;9.828;2022-08-19T05:09:03;18.30;99.90
54409;DHT22;40315;48.620;9.828;2022-08-19T05:11:35;18.40;99.90
54409;DHT22;40315;48.620;9.828;2022-08-19T05:14:05;18.30;99.90
54409;DHT22;40315;48.620;9.828;2022-08-19T05:16:32;18.40;99.90
54409;DHT22;40315;48.620;9.828;2022-08-19T05:19:02;18.20;99.90
54409;DHT22;40315;48.620;9.828;2022-08-19T05:22:01;18.20;99.90
54409;DHT22;40315;48.620;9.828;2022-08-19T05:24:46;18.20;99.90
54409;DHT22;40315;48.620;9.828;2022-08-19T05:27:13;18.30;99.90
54409;DHT22;40315;48.620;9.828;2022-08-19T05:29:42;18.30;99.90
54409;DHT22;40315;48.620;9.828;2022-08-19T05:32:09;18.40;99.90
54409;DHT22;40315;48.620;9.828;2022-08-19T05:34:39;18.30;99.90
54409;DHT22;40315;48.620;9.828;2022-08-19T05:37:07;18.20;99.90
54409;DHT22;40315;48.620;9.828;2022-08-19T05:39:37;18.30;99.90
54409;DHT22;40315;48.620;9.828;2022-08-19T05:42:08;18.30;99.90
54409;DHT22;40315;48.620;9.828;2022-08-19T05:44:37;18.40;99.90
54409;DHT22;40315;48.620;9.828;2022-08-19T05:47:10;18.40;99.90
54409;DHT22;40315;48.620;9.828;2022-08-19T05:49:42;18.50;99.90
54409;DHT22;40315;48.620;9.828;2022-08-19T05:52:11;18.50;99.90
54409;DHT22;40315;48.620;9.828;2022-08-19T05:54:40;18.40;99.90
54409;DHT22;40315;48.620;9.828;2022-08-19T05:57:08;18.20;99.90
54409;DHT22;40315;48.620;9.828;2022-08-19T05:59:35;17.90;99.90
54409;DHT22;40315;48.620;9.828;2022-08-19T06:02:06;17.80;99.90
54409;DHT22;40315;48.620;9.828;2022-08-19T06:04:33;17.90;99.90
54409;DHT22;40315;48.620;9.828;2022-08-19T06:07:02;17.80;99.90
54409;DHT22;40315;48.620;9.828;2022-08-19T06:09:30;17.80;99.90
54409;DHT22;40315;48.620;9.828;2022-08-19T06:11:58;17.70;99.90
54409;DHT22;40315;48.620;9.828;2022-08-19T06:14:29;17.70;99.90
54409;DHT22;40315;48.620;9.828;2022-08-19T06:16:57;17.80;99.90
54409;DHT22;40315;48.620;9.828;2022-08-19T06:19:29;17.90;99.90
54409;DHT22;40315;48.620;9.828;2022-08-19T06:21:58;17.70;99.90
54409;DHT22;40315;48.620;9.828;2022-08-19T06:24:30;17.80;99.90
54409;DHT22;40315;48.620;9.828;2022-08-19T06:26:58;18.40;99.90
54409;DHT22;40315;48.620;9.828;2022-08-19T06:29:28;17.80;99.90
54409;DHT22;40315;48.620;9.828;2022-08-19T06:31:59;17.90;99.90
54409;DHT22;40315;48.620;9.828;2022-08-19T06:34:33;17.70;99.90
54409;DHT22;40315;48.620;9.828;2022-08-19T06:37:01;17.70;99.90
54409;DHT22;40315;48.620;9.828;2022-08-19T06:39:32;17.60;99.90
54409;DHT22;40315;48.620;9.828;2022-08-19T06:42:02;17.60;99.90
54409;DHT22;40315;48.620;9.828;2022-08-19T06:44:34;17.50;99.90
54409;DHT22;40315;48.620;9.828;2022-08-19T06:47:03;17.50;99.90
54409;DHT22;40315;48.620;9.828;2022-08-19T06:49:30;17.50;99.90
54409;DHT22;40315;48.620;9.828;2022-08-19T06:52:00;17.40;99.90
54409;DHT22;40315;48.620;9.828;2022-08-19T06:54:29;17.50;99.90
54409;DHT22;40315;48.620;9.828;2022-08-19T06:56:56;17.50;99.90
54409;DHT22;40315;48.620;9.828;2022-08-19T06:59:25;17.40;99.90
54409;DHT22;40315;48.620;9.828;2022-08-19T07:01:54;17.30;99.90
54409;DHT22;40315;48.620;9.828;2022-08-19T07:04:25;17.30;99.90
54409;DHT22;40315;48.620;9.828;2022-08-19T07:06:58;17.50;99.90
54409;DHT22;40315;48.620;9.828;2022-08-19T07:09:26;17.30;99.90
54409;DHT22;40315;48.620;9.828;2022-08-19T07:11:55;17.30;99.90
54409;DHT22;40315;48.620;9.828;2022-08-19T07:14:24;17.40;99.90
54409;DHT22;40315;48.620;9.828;2022-08-19T07:16:54;17.40;99.90
54409;DHT22;40315;48.620;9.828;2022-08-19T07:19:23;17.40;99.90
54409;DHT22;40315;48.620;9.828;2022-08-19T07:21:53;17.40;99.90
54409;DHT22;40315;48.620;9.828;2022-08-19T07:24:24;17.40;99.90
54409;DHT22;40315;48.620;9.828;2022-08-19T07:27:00;17.30;99.90
54409;DHT22;40315;48.620;9.828;2022-08-19T07:29:32;17.40;99.90
54409;DHT22;40315;48.620;9.828;2022-08-19T07:32:03;17.40;99.90
54409;DHT22;40315;48.620;9.828;2022-08-19T07:34:33;17.40;99.90
54409;DHT22;40315;48.620;9.828;2022-08-19T07:37:06;17.40;99.90
54409;DHT22;40315;48.620;9.828;2022-08-19T07:39:36;17.40;99.90
54409;DHT22;40315;48.620;9.828;2022-08-19T07:42:08;17.40;99.90
54409;DHT22;40315;48.620;9.828;2022-08-19T07:44:38;17.40;99.90
54409;DHT22;40315;48.620;9.828;2022-08-19T07:47:10;17.50;99.90
54409;DHT22;40315;48.620;9.828;2022-08-19T07:49:45;17.40;99.90
54409;DHT22;40315;48.620;9.828;2022-08-19T07:52:16;17.30;99.90
54409;DHT22;40315;48.620;9.828;2022-08-19T07:54:44;18.80;99.90
54409;DHT22;40315;48.620;9.828;2022-08-19T07:57:15;17.30;99.90
54409;DHT22;40315;48.620;9.828;2022-08-19T07:59:44;17.30;99.90
54409;DHT22;40315;48.620;9.828;2022-08-19T08:02:12;17.40;99.90
54409;DHT22;40315;48.620;9.828;2022-08-19T08:04:41;17.40;99.90
54409;DHT22;40315;48.620;9.828;2022-08-19T08:07:28;17.30;99.90
54409;DHT22;40315;48.620;9.828;2022-08-19T08:10:13;17.40;99.90
54409;DHT22;40315;48.620;9.828;2022-08-19T08:12:41;17.30;99.90
54409;DHT22;40315;48.620;9.828;2022-08-19T08:15:14;17.20;99.90
54409;DHT22;40315;48.620;9.828;2022-08-19T08:17:44;17.20;99.90
54409;DHT22;40315;48.620;9.828;2022-08-19T08:20:12;17.20;99.90
54409;DHT22;40315;48.620;9.828;2022-08-19T08:22:43;17.20;99.90
54409;DHT22;40315;48.620;9.828;2022-08-19T08:25:30;17.20;99.90
54409;DHT22;40315;48.620;9.828;2022-08-19T08:27:59;17.30;99.90
54409;DHT22;40315;48.620;9.828;2022-08-19T08:30:27;17.30;99.90
54409;DHT22;40315;48.620;9.828;2022-08-19T08:33:03;17.40;99.90
54409;DHT22;40315;48.620;9.828;2022-08-19T08:35:31;17.30;99.90
54409;DHT22;40315;48.620;9.828;2022-08-19T08:38:02;17.40;99.90
54409;DHT22;40315;48.620;9.828;2022-08-19T08:40:36;17.50;99.90
54409;DHT22;40315;48.620;9.828;2022-08-19T08:43:11;17.40;99.90
54409;DHT22;40315;48.620;9.828;2022-08-19T08:45:46;17.40;99.90
54409;DHT22;40315;48.620;9.828;2022-08-19T08:48:20;17.50;99.90
54409;DHT22;40315;48.620;9.828;2022-08-19T08:50:53;17.50;99.90
54409;DHT22;40315;48.620;9.828;2022-08-19T08:53:21;17.60;99.90
54409;DHT22;40315;48.620;9.828;2022-08-19T08:55:51;17.50;99.90
54409;DHT22;40315;48.620;9.828;2022-08-19T08:58:27;17.70;99.90
54409;DHT22;40315;48.620;9.828;2022-08-19T09:00:56;17.60;99.90
54409;DHT22;40315;48.620;9.828;2022-08-19T09:03:26;17.60;99.90
54409;DHT22;40315;48.620;9.828;2022-08-19T09:06:00;17.70;99.90
54409;DHT22;40315;48.620;9.828;2022-08-19T09:08:39;17.70;99.90
54409;DHT22;40315;48.620;9.828;2022-08-19T09:11:10;17.70;99.90
54409;DHT22;40315;48.620;9.828;2022-08-19T09:13:49;17.70;99.90
54409;DHT22;40315;48.620;9.828;2022-08-19T09:16:21;17.70;99.90
54409;DHT22;40315;48.620;9.828;2022-08-19T09:18:54;17.60;99.90
54409;DHT22;40315;48.620;9.828;2022-08-19T09:21:26;17.60;99.90
54409;DHT22;40315;48.620;9.828;2022-08-19T09:23:54;17.60;99.90
54409;DHT22;40315;48.620;9.828;2022-08-19T09:26:23;17.50;99.90
54409;DHT22;40315;48.620;9.828;2022-08-19T09:28:53;17.60;99.90
54409;DHT22;40315;48.620;9.828;2022-08-19T09:31:24;17.60;99.90
54409;DHT22;40315;48.620;9.828;2022-08-19T09:33:52;17.70;99.90
54409;DHT22;40315;48.620;9.828;2022-08-19T09:36:23;17.60;99.90
54409;DHT22;40315;48.620;9.828;2022-08-19T09:38:50;17.60;99.90
54409;DHT22;40315;48.620;9.828;2022-08-19T09:41:23;17.70;99.90
54409;DHT22;40315;48.620;9.828;2022-08-19T09:43:56;17.70;99.90
54409;DHT22;40315;48.620;9.828;2022-08-19T09:46:25;17.70;99.90
54409;DHT22;40315;48.620;9.828;2022-08-19T09:48:53;17.70;99.90
54409;DHT22;40315;48.620;9.828;2022-08-19T09:51:23;17.70;99.90
54409;DHT22;40315;48.620;9.828;2022-08-19T09:53:54;17.70;99.90
54409;DHT22;40315;48.620;9.828;2022-08-19T09:56:23;17.60;99.90
54409;DHT22;40315;48.620;9.828;2022-08-19T09:58:50;17.60;99.90
54409;DHT22;40315;48.620;9.828;2022-08-19T10:01:20;17.70;99.90
54409;DHT22;40315;48.620;9.828;2022-08-19T10:03:48;17.70;99.90
54409;DHT22;40315;48.620;9.828;2022-08-19T10:06:17;17.70;99.90
54409;DHT22;40315;48.620;9.828;2022-08-19T10:08:44;17.70;99.90
54409;DHT22;40315;48.620;9.828;2022-08-19T10:11:12;17.80;99.90
54409;DHT22;40315;48.620;9.828;2022-08-19T10:13:44;17.90;99.90
54409;DHT22;40315;48.620;9.828;2022-08-19T10:16:13;17.90;99.90
54409;DHT22;40315;48.620;9.828;2022-08-19T10:18:42;17.90;99.90
54409;DHT22;40315;48.620;9.828;2022-08-19T10:21:13;17.90;99.90
54409;DHT22;40315;48.620;9.828;2022-08-19T10:23:42;17.90;99.90
54409;DHT22;40315;48.620;9.828;2022-08-19T10:26:13;17.90;99.90
54409;DHT22;40315;48.620;9.828;2022-08-19T10:28:40;17.90;99.90
54409;DHT22;40315;48.620;9.828;2022-08-19T10:31:10;17.90;99.90
54409;DHT22;40315;48.620;9.828;2022-08-19T10:33:38;18.00;99.90
54409;DHT22;40315;48.620;9.828;2022-08-19T10:36:12;18.00;99.90
54409;DHT22;40315;48.620;9.828;2022-08-19T10:38:40;18.00;99.90
54409;DHT22;40315;48.620;9.828;2022-08-19T10:41:12;18.00;99.90
54409;DHT22;40315;48.620;9.828;2022-08-19T10:43:40;18.10;99.90
54409;DHT22;40315;48.620;9.828;2022-08-19T10:46:12;18.10;99.90
54409;DHT22;40315;48.620;9.828;2022-08-19T10:48:40;18.10;99.90
54409;DHT22;40315;48.620;9.828;2022-08-19T10:51:11;18.00;99.90
54409;DHT22;40315;48.620;9.828;2022-08-19T10:53:56;18.00;99.90
54409;DHT22;40315;48.620;9.828;2022-08-19T10:56:26;18.00;99.90
54409;DHT22;40315;48.620;9.828;2022-08-19T10:59:11;17.90;99.90
54409;DHT22;40315;48.620;9.828;2022-08-19T11:01:40;18.00;99.90
54409;DHT22;40315;48.620;9.828;2022-08-19T11:04:08;17.90;99.90
54409;DHT22;40315;48.620;9.828;2022-08-19T11:06:38;18.00;99.90
54409;DHT22;40315;48.620;9.828;2022-08-19T11:09:07;17.80;99.90
54409;DHT22;40315;48.620;9.828;2022-08-19T11:11:38;17.80;99.90
54409;DHT22;40315;48.620;9.828;2022-08-19T11:14:07;17.80;99.90
54409;DHT22;40315;48.620;9.828;2022-08-19T11:16:34;17.80;99.90
54409;DHT22;40315;48.620;9.828;2022-08-19T11:19:02;17.80;99.90
54409;DHT22;40315;48.620;9.828;2022-08-19T11:21:30;17.80;99.90
54409;DHT22;40315;48.620;9.828;2022-08-19T11:24:01;17.70;99.90
54409;DHT22;40315;48.620;9.828;2022-08-19T11:26:32;17.80;99.90
54409;DHT22;40315;48.620;9.828;2022-08-19T11:29:00;17.90;99.90
54409;DHT22;40315;48.620;9.828;2022-08-19T11:31:32;17.70;99.90
54409;DHT22;40315;48.620;9.828;2022-08-19T11:34:05;17.70;99.90
54409;DHT22;40315;48.620;9.828;2022-08-19T11:36:37;17.70;99.90
54409;DHT22;40315;48.620;9.828;2022-08-19T11:39:06;17.70;99.90
54409;DHT22;40315;48.620;9.828;2022-08-19T11:41:34;17.80;99.90
54409;DHT22;40315;48.620;9.828;2022-08-19T11:44:02;17.80;99.90
54409;DHT22;40315;48.620;9.828;2022-08-19T11:46:32;17.80;99.90
54409;DHT22;40315;48.620;9.828;2022-08-19T11:49:08;17.70;99.90
54409;DHT22;40315;48.620;9.828;2022-08-19T11:51:36;17.80;99.90
54409;DHT22;40315;48.620;9.828;2022-08-19T11:54:07;17.80;99.90
54409;DHT22;40315;48.620;9.828;2022-08-19T11:56:38;17.80;99.90
54409;DHT22;40315;48.620;9.828;2022-08-19T11:59:06;17.80;99.90
54409;DHT22;40315;48.620;9.828;2022-08-19T12:01:34;17.90;99.90
54409;DHT22;40315;48.620;9.828;2022-08-19T12:04:05;17.80;99.90
54409;DHT22;40315;48.620;9.828;2022-08-19T12:06:32;17.80;99.90
54409;DHT22;40315;48.620;9.828;2022-08-19T12:09:05;17.70;99.90
54409;DHT22;40315;48.620;9.828;2022-08-19T12:11:34;17.80;99.90
54409;DHT22;40315;48.620;9.828;2022-08-19T12:14:04;17.90;99.90
54409;DHT22;40315;48.620;9.828;2022-08-19T12:16:32;17.90;99.90
54409;DHT22;40315;48.620;9.828;2022-08-19T12:18:59;18.00;99.90
54409;DHT22;40315;48.620;9.828;2022-08-19T12:21:30;18.00;99.90
54409;DHT22;40315;48.620;9.828;2022-08-19T12:23:58;18.20;99.90
54409;DHT22;40315;48.620;9.828;2022-08-19T12:26:27;18.20;99.90
54409;DHT22;40315;48.620;9.828;2022-08-19T12:28:57;18.20;99.90
54409;DHT22;40315;48.620;9.828;2022-08-19T12:31:25;18.20;99.90
54409;DHT22;40315;48.620;9.828;2022-08-19T12:33:54;18.20;99.90
54409;DHT22;40315;48.620;9.828;2022-08-19T12:36:21;18.10;99.90
54409;DHT22;40315;48.620;9.828;2022-08-19T12:38:51;18.20;99.90
54409;DHT22;40315;48.620;9.828;2022-08-19T12:41:23;18.20;99.90
54409;DHT22;40315;48.620;9.828;2022-08-19T12:43:50;15.80;99.90
54409;DHT22;40315;48.620;9.828;2022-08-19T12:46:20;18.10;99.90
54409;DHT22;40315;48.620;9.828;2022-08-19T12:48:47;18.20;99.90
54409;DHT22;40315;48.620;9.828;2022-08-19T12:51:17;18.10;99.90
54409;DHT22;40315;48.620;9.828;2022-08-19T12:53:45;18.20;99.90
54409;DHT22;40315;48.620;9.828;2022-08-19T12:56:13;18.20;99.90
54409;DHT22;40315;48.620;9.828;2022-08-19T12:58:41;18.10;99.90
54409;DHT22;40315;48.620;9.828;2022-08-19T13:01:11;18.00;99.90
54409;DHT22;40315;48.620;9.828;2022-08-19T13:03:42;18.10;99.90
54409;DHT22;40315;48.620;9.828;2022-08-19T13:06:09;18.10;99.90
54409;DHT22;40315;48.620;9.828;2022-08-19T13:08:36;18.00;99.90
54409;DHT22;40315;48.620;9.828;2022-08-19T13:11:08;18.00;99.90
54409;DHT22;40315;48.620;9.828;2022-08-19T13:13:37;18.10;99.90
54409;DHT22;40315;48.620;9.828;2022-08-19T13:16:07;18.00;99.90
54409;DHT22;40315;48.620;9.828;2022-08-19T13:18:37;18.10;99.90
54409;DHT22;40315;48.620;9.828;2022-08-19T13:21:09;18.10;99.90
54409;DHT22;40315;48.620;9.828;2022-08-19T13:23:39;18.10;99.90
54409;DHT22;40315;48.620;9.828;2022-08-19T13:26:08;18.10;99.90
54409;DHT22;40315;48.620;9.828;2022-08-19T13:28:35;17.50;99.90
54409;DHT22;40315;48.620;9.828;2022-08-19T13:31:21;17.90;99.90
54409;DHT22;40315;48.620;9.828;2022-08-19T13:34:10;17.80;99.90
54409;DHT22;40315;48.620;9.828;2022-08-19T13:36:38;17.80;99.90
54409;DHT22;40315;48.620;9.828;2022-08-19T13:39:06;17.90;99.90
54409;DHT22;40315;48.620;9.828;2022-08-19T13:41:34;18.00;99.90
54409;DHT22;40315;48.620;9.828;2022-08-19T13:44:02;18.00;99.90
54409;DHT22;40315;48.620;9.828;2022-08-19T13:46:29;18.00;99.90
54409;DHT22;40315;48.620;9.828;2022-08-19T13:48:56;18.00;99.90
54409;DHT22;40315;48.620;9.828;2022-08-19T13:51:23;17.90;99.90
54409;DHT22;40315;48.620;9.828;2022-08-19T13:53:51;17.90;99.90
54409;DHT22;40315;48.620;9.828;2022-08-19T13:56:21;18.00;99.90
54409;DHT22;40315;48.620;9.828;2022-08-19T13:58:48;18.10;99.90
54409;DHT22;40315;48.620;9.828;2022-08-19T14:01:19;18.20;99.90
54409;DHT22;40315;48.620;9.828;2022-08-19T14:03:47;18.20;99.90
54409;DHT22;40315;48.620;9.828;2022-08-19T14:06:15;18.30;99.90
54409;DHT22;40315;48.620;9.828;2022-08-19T14:08:48;18.30;99.90
54409;DHT22;40315;48.620;9.828;2022-08-19T14:11:16;18.30;99.90
54409;DHT22;40315;48.620;9.828;2022-08-19T14:13:43;18.30;99.90
54409;DHT22;40315;48.620;9.828;2022-08-19T14:16:12;18.30;99.90
54409;DHT22;40315;48.620;9.828;2022-08-19T14:18:41;18.20;99.90
54409;DHT22;40315;48.620;9.828;2022-08-19T14:21:15;18.10;99.90
54409;DHT22;40315;48.620;9.828;2022-08-19T14:23:43;18.20;99.90
54409;DHT22;40315;48.620;9.828;2022-08-19T14:26:12;18.30;99.90
54409;DHT22;40315;48.620;9.828;2022-08-19T14:28:42;18.40;99.90
54409;DHT22;40315;48.620;9.828;2022-08-19T14:31:10;18.60;99.90
54409;DHT22;40315;48.620;9.828;2022-08-19T14:33:37;18.60;99.90
54409;DHT22;40315;48.620;9.828;2022-08-19T14:36:04;18.40;99.90
54409;DHT22;40315;48.620;9.828;2022-08-19T14:38:33;18.50;99.90
54409;DHT22;40315;48.620;9.828;2022-08-19T14:41:12;18.60;99.90
54409;DHT22;40315;48.620;9.828;2022-08-19T14:43:47;18.70;99.90
54409;DHT22;40315;48.620;9.828;2022-08-19T14:46:17;18.80;99.90
54409;DHT22;40315;48.620;9.828;2022-08-19T14:48:48;18.80;99.90
54409;DHT22;40315;48.620;9.828;2022-08-19T14:51:16;18.90;99.90
54409;DHT22;40315;48.620;9.828;2022-08-19T14:53:43;18.80;99.90
54409;DHT22;40315;48.620;9.828;2022-08-19T14:56:15;18.90;99.90
54409;DHT22;40315;48.620;9.828;2022-08-19T14:58:46;18.90;99.90
54409;DHT22;40315;48.620;9.828;2022-08-19T15:01:13;19.00;99.90
54409;DHT22;40315;48.620;9.828;2022-08-19T15:03:40;19.00;99.90
54409;DHT22;40315;48.620;9.828;2022-08-19T15:06:08;19.00;99.90
54409;DHT22;40315;48.620;9.828;2022-08-19T15:08:36;19.10;99.90
54409;DHT22;40315;48.620;9.828;2022-08-19T15:11:08;19.10;99.90
54409;DHT22;40315;48.620;9.828;2022-08-19T15:13:36;19.20;99.90
54409;DHT22;40315;48.620;9.828;2022-08-19T15:16:06;19.20;99.90
54409;DHT22;40315;48.620;9.828;2022-08-19T15:18:34;19.20;99.90
54409;DHT22;40315;48.620;9.828;2022-08-19T15:21:02;19.20;99.90
54409;DHT22;40315;48.620;9.828;2022-08-19T15:23:30;19.00;99.90
54409;DHT22;40315;48.620;9.828;2022-08-19T15:25:57;19.10;99.90
54409;DHT22;40315;48.620;9.828;2022-08-19T15:28:25;19.20;99.90
54409;DHT22;40315;48.620;9.828;2022-08-19T15:30:52;19.20;99.90
54409;DHT22;40315;48.620;9.828;2022-08-19T15:33:20;19.20;99.90
54409;DHT22;40315;48.620;9.828;2022-08-19T15:35:48;19.20;99.90
54409;DHT22;40315;48.620;9.828;2022-08-19T15:38:17;19.20;99.90
54409;DHT22;40315;48.620;9.828;2022-08-19T15:40:49;19.20;99.90
54409;DHT22;40315;48.620;9.828;2022-08-19T15:43:17;19.00;99.90
54409;DHT22;40315;48.620;9.828;2022-08-19T15:45:48;18.90;99.90
54409;DHT22;40315;48.620;9.828;2022-08-19T15:48:19;18.90;99.90
54409;DHT22;40315;48.620;9.828;2022-08-19T15:50:46;19.00;99.90